sensor_id;sensor_type;location;lat;lon;timestamp;temperature;humidity
7167;DHT22;3625;51.762;14.320;2022-12-18T00:01:29;-2.80;99.90
7167;DHT22;3625;51.762;14.320;2022-12-18T00:04:02;-2.90;99.90
7167;DHT22;3625;51.762;14.320;2022-12-18T00:09:05;-2.60;99.90
7167;DHT22;3625;51.762;14.320;2022-12-18T00:14:02;-2.50;99.90
7167;DHT22;3625;51.762;14.320;2022-12-18T00:16:30;-2.50;99.90
7167;DHT22;3625;51.762;14.320;2022-12-18T00:19:02;-2.50;99.90
7167;DHT22;3625;51.762;14.320;2022-12-18T00:21:32;0.20;99.90
7167;DHT22;3625;51.762;14.320;2022-12-18T00:24:00;-2.50;99.90
7167;DHT22;3625;51.762;14.320;2022-12-18T00:26:32;-2.40;99.90
7167;DHT22;3625;51.762;14.320;2022-12-18T00:29:03;-2.40;99.90
7167;DHT22;3625;51.762;14.320;2022-12-18T00:34:03;-2.40;99.90
7167;DHT22;3625;51.762;14.320;2022-12-18T00:36:33;-2.40;99.90
7167;DHT22;3625;51.762;14.320;2022-12-18T00:39:04;-2.40;99.90
7167;DHT22;3625;51.762;14.320;2022-12-18T00:41:34;-2.40;99.90
7167;DHT22;3625;51.762;14.320;2022-12-18T00:44:34;-2.40;99.90
7167;DHT22;3625;51.762;14.320;2022-12-18T00:47:03;-2.40;99.90
7167;DHT22;3625;51.762;14.320;2022-12-18T00:49:32;-2.60;99.90
7167;DHT22;3625;51.762;14.320;2022-12-18T00:54:29;-2.60;99.90
7167;DHT22;3625;51.762;14.320;2022-12-18T00:56:59;-2.50;99.90
7167;DHT22;3625;51.762;14.320;2022-12-18T00:59:27;-2.50;99.90
7167;DHT22;3625;51.762;14.320;2022-12-18T01:04:25;-2.70;99.90
7167;DHT22;3625;51.762;14.320;2022-12-18T01:06:54;-2.60;99.90
7167;DHT22;3625;51.762;14.320;2022-12-18T01:09:22;-2.70;99.90
7167;DHT22;3625;51.762;14.320;2022-12-18T01:14:21;-2.60;99.90
7167;DHT22;3625;51.762;14.320;2022-12-18T01:16:49;-2.70;99.90
7167;DHT22;3625;51.762;14.320;2022-12-18T01:19:18;-2.70;99.90
7167;DHT22;3625;51.762;14.320;2022-12-18T01:21:47;-2.70;99.90
7167;DHT22;3625;51.762;14.320;2022-12-18T01:24:15;-2.60;99.90
7167;DHT22;3625;51.762;14.320;2022-12-18T01:26:43;-2.60;99.90
7167;DHT22;3625;51.762;14.320;2022-12-18T01:29:13;-2.50;99.90
7167;DHT22;3625;51.762;14.320;2022-12-18T01:31:43;-2.50;99.90
7167;DHT22;3625;51.762;14.320;2022-12-18T01:36:41;-2.50;99.90
7167;DHT22;3625;51.762;14.320;2022-12-18T01:39:12;-2.60;99.90
7167;DHT22;3625;51.762;14.320;2022-12-18T01:41:42;-2.70;99.90
7167;DHT22;3625;51.762;14.320;2022-12-18T01:44:55;-2.70;99.90
7167;DHT22;3625;51.762;14.320;2022-12-18T01:47:35;-2.80;99.90
7167;DHT22;3625;51.762;14.320;2022-12-18T01:50:09;-2.70;99.90
7167;DHT22;3625;51.762;14.320;2022-12-18T01:52:41;-2.60;99.90
7167;DHT22;3625;51.762;14.320;2022-12-18T01:55:12;-2.60;99.90
7167;DHT22;3625;51.762;14.320;2022-12-18T01:57:46;-0.20;99.90
7167;DHT22;3625;51.762;14.320;2022-12-18T02:00:18;-2.60;99.90
7167;DHT22;3625;51.762;14.320;2022-12-18T02:02:52;-2.60;99.90
7167;DHT22;3625;51.762;14.320;2022-12-18T02:05:29;-2.60;99.90
7167;DHT22;3625;51.762;14.320;2022-12-18T02:08:12;-2.70;99.90
7167;DHT22;3625;51.762;14.320;2022-12-18T02:10:48;-0.60;99.90
7167;DHT22;3625;51.762;14.320;2022-12-18T02:13:31;-2.90;99.90
7167;DHT22;3625;51.762;14.320;2022-12-18T02:16:08;-2.90;99.90
7167;DHT22;3625;51.762;14.320;2022-12-18T02:18:48;-2.90;99.90
7167;DHT22;3625;51.762;14.320;2022-12-18T02:21:28;-2.80;99.90
7167;DHT22;3625;51.762;14.320;2022-12-18T02:24:16;-1.80;99.90
7167;DHT22;3625;51.762;14.320;2022-12-18T02:26:56;-3.00;99.90
7167;DHT22;3625;51.762;14.320;2022-12-18T02:29:33;-3.00;99.90
7167;DHT22;3625;51.762;14.320;2022-12-18T02:32:09;-3.00;99.90
7167;DHT22;3625;51.762;14.320;2022-12-18T02:34:43;-2.90;99.90
7167;DHT22;3625;51.762;14.320;2022-12-18T02:37:17;-2.90;99.90
7167;DHT22;3625;51.762;14.320;2022-12-18T02:39:49;-3.00;99.90
7167;DHT22;3625;51.762;14.320;2022-12-18T02:42:24;-3.00;99.90
7167;DHT22;3625;51.762;14.320;2022-12-18T02:44:56;-3.00;99.90
7167;DHT22;3625;51.762;14.320;2022-12-18T02:47:30;-3.00;99.90
7167;DHT22;3625;51.762;14.320;2022-12-18T02:50:07;-3.00;99.90
7167;DHT22;3625;51.762;14.320;2022-12-18T02:52:48;-2.90;99.90
7167;DHT22;3625;51.762;14.320;2022-12-18T02:55:32;-0.90;99.90
7167;DHT22;3625;51.762;14.320;2022-12-18T02:58:18;-2.80;99.90
7167;DHT22;3625;51.762;14.320;2022-12-18T03:01:03;-2.90;99.90
7167;DHT22;3625;51.762;14.320;2022-12-18T03:03:40;-2.90;99.90
7167;DHT22;3625;51.762;14.320;2022-12-18T03:06:15;-2.90;99.90
7167;DHT22;3625;51.762;14.320;2022-12-18T03:08:56;-2.90;99.90
7167;DHT22;3625;51.762;14.320;2022-12-18T03:11:33;-2.90;99.90
7167;DHT22;3625;51.762;14.320;2022-12-18T03:14:21;-2.80;99.90
7167;DHT22;3625;51.762;14.320;2022-12-18T03:16:57;-2.80;99.90
7167;DHT22;3625;51.762;14.320;2022-12-18T03:19:32;-2.80;99.90
7167;DHT22;3625;51.762;14.320;2022-12-18T03:22:03;-2.60;99.90
7167;DHT22;3625;51.762;14.320;2022-12-18T03:24:48;-2.70;99.90
7167;DHT22;3625;51.762;14.320;2022-12-18T03:27:19;-2.60;99.90
7167;DHT22;3625;51.762;14.320;2022-12-18T03:29:59;-2.60;99.90
7167;DHT22;3625;51.762;14.320;2022-12-18T03:32:39;-2.60;99.90
7167;DHT22;3625;51.762;14.320;2022-12-18T03:35:14;-2.60;99.90
7167;DHT22;3625;51.762;14.320;2022-12-18T03:37:47;-2.60;99.90
7167;DHT22;3625;51.762;14.320;2022-12-18T03:40:17;-2.60;99.90
7167;DHT22;3625;51.762;14.320;2022-12-18T03:42:52;-2.60;99.90
7167;DHT22;3625;51.762;14.320;2022-12-18T03:45:34;-2.70;99.90
7167;DHT22;3625;51.762;14.320;2022-12-18T03:48:08;-2.70;99.90
7167;DHT22;3625;51.762;14.320;2022-12-18T03:50:48;-2.70;99.90
7167;DHT22;3625;51.762;14.320;2022-12-18T03:53:28;-1.70;99.90
7167;DHT22;3625;51.762;14.320;2022-12-18T03:56:05;-2.70;99.90
7167;DHT22;3625;51.762;14.320;2022-12-18T03:58:40;-2.70;99.90
7167;DHT22;3625;51.762;14.320;2022-12-18T04:01:20;-1.10;99.90
7167;DHT22;3625;51.762;14.320;2022-12-18T04:03:56;-2.90;99.90
7167;DHT22;3625;51.762;14.320;2022-12-18T04:06:31;-2.90;99.90
7167;DHT22;3625;51.762;14.320;2022-12-18T04:09:00;-3.00;99.90
7167;DHT22;3625;51.762;14.320;2022-12-18T04:11:31;-1.60;99.90
7167;DHT22;3625;51.762;14.320;2022-12-18T04:14:02;-3.20;99.90
7167;DHT22;3625;51.762;14.320;2022-12-18T04:16:35;-3.20;99.90
7167;DHT22;3625;51.762;14.320;2022-12-18T04:19:07;-3.20;99.90
7167;DHT22;3625;51.762;14.320;2022-12-18T04:21:39;-3.00;99.90
7167;DHT22;3625;51.762;14.320;2022-12-18T04:24:10;-3.00;99.90
7167;DHT22;3625;51.762;14.320;2022-12-18T04:26:45;-2.90;99.90
7167;DHT22;3625;51.762;14.320;2022-12-18T04:29:21;-1.90;99.90
7167;DHT22;3625;51.762;14.320;2022-12-18T04:31:51;-2.80;99.90
7167;DHT22;3625;51.762;14.320;2022-12-18T04:34:20;-2.70;99.90
7167;DHT22;3625;51.762;14.320;2022-12-18T04:41:54;-2.80;99.90
7167;DHT22;3625;51.762;14.320;2022-12-18T04:44:23;-2.70;99.90
7167;DHT22;3625;51.762;14.320;2022-12-18T04:46:52;-2.80;99.90
7167;DHT22;3625;51.762;14.320;2022-12-18T04:49:22;-2.80;99.90
7167;DHT22;3625;51.762;14.320;2022-12-18T04:54:20;-2.90;99.90
7167;DHT22;3625;51.762;14.320;2022-12-18T04:56:48;-2.90;99.90
7167;DHT22;3625;51.762;14.320;2022-12-18T04:59:17;-2.90;99.90
7167;DHT22;3625;51.762;14.320;2022-12-18T05:01:45;-2.80;99.90
7167;DHT22;3625;51.762;14.320;2022-12-18T05:04:15;-2.80;99.90
7167;DHT22;3625;51.762;14.320;2022-12-18T05:06:43;-2.80;99.90
7167;DHT22;3625;51.762;14.320;2022-12-18T05:09:12;-2.80;99.90
7167;DHT22;3625;51.762;14.320;2022-12-18T05:11:40;-2.90;99.90
7167;DHT22;3625;51.762;14.320;2022-12-18T05:14:08;-2.90;99.90
7167;DHT22;3625;51.762;14.320;2022-12-18T05:16:37;-2.80;99.90
7167;DHT22;3625;51.762;14.320;2022-12-18T05:21:35;-3.00;99.90
7167;DHT22;3625;51.762;14.320;2022-12-18T05:24:04;-3.00;99.90
7167;DHT22;3625;51.762;14.320;2022-12-18T05:26:33;-2.90;99.90
7167;DHT22;3625;51.762;14.320;2022-12-18T05:29:01;-3.00;99.90
7167;DHT22;3625;51.762;14.320;2022-12-18T05:31:29;-3.10;99.90
7167;DHT22;3625;51.762;14.320;2022-12-18T05:34:05;-2.20;99.90
7167;DHT22;3625;51.762;14.320;2022-12-18T05:36:35;-3.10;99.90
7167;DHT22;3625;51.762;14.320;2022-12-18T05:39:03;-1.00;99.90
7167;DHT22;3625;51.762;14.320;2022-12-18T05:41:32;-3.10;99.90
7167;DHT22;3625;51.762;14.320;2022-12-18T05:44:00;-3.00;99.90
7167;DHT22;3625;51.762;14.320;2022-12-18T05:46:29;-2.90;99.90
7167;DHT22;3625;51.762;14.320;2022-12-18T05:48:59;-2.70;99.90
7167;DHT22;3625;51.762;14.320;2022-12-18T05:53:59;-2.80;99.90
7167;DHT22;3625;51.762;14.320;2022-12-18T05:56:27;-2.80;99.90
7167;DHT22;3625;51.762;14.320;2022-12-18T05:58:56;-2.80;99.90
7167;DHT22;3625;51.762;14.320;2022-12-18T06:01:25;-2.70;99.90
7167;DHT22;3625;51.762;14.320;2022-12-18T06:03:55;-2.80;99.90
7167;DHT22;3625;51.762;14.320;2022-12-18T06:06:25;-2.80;99.90
7167;DHT22;3625;51.762;14.320;2022-12-18T06:08:55;-2.80;99.90
7167;DHT22;3625;51.762;14.320;2022-12-18T06:11:26;-2.80;99.90
7167;DHT22;3625;51.762;14.320;2022-12-18T06:13:56;-2.90;99.90
7167;DHT22;3625;51.762;14.320;2022-12-18T06:16:27;-2.90;99.90
7167;DHT22;3625;51.762;14.320;2022-12-18T06:21:27;-3.00;99.90
7167;DHT22;3625;51.762;14.320;2022-12-18T06:23:58;-2.80;99.90
7167;DHT22;3625;51.762;14.320;2022-12-18T06:26:28;-3.00;99.90
7167;DHT22;3625;51.762;14.320;2022-12-18T06:31:26;-2.90;99.90
7167;DHT22;3625;51.762;14.320;2022-12-18T06:33:54;-2.90;99.90
7167;DHT22;3625;51.762;14.320;2022-12-18T06:38:54;-2.90;99.90
7167;DHT22;3625;51.762;14.320;2022-12-18T06:41:24;-2.90;99.90
7167;DHT22;3625;51.762;14.320;2022-12-18T06:43:53;-2.80;99.90
7167;DHT22;3625;51.762;14.320;2022-12-18T06:46:27;-2.80;99.90
7167;DHT22;3625;51.762;14.320;2022-12-18T06:48:55;-2.90;99.90
7167;DHT22;3625;51.762;14.320;2022-12-18T06:51:24;-2.90;99.90
7167;DHT22;3625;51.762;14.320;2022-12-18T06:53:52;-2.90;99.90
7167;DHT22;3625;51.762;14.320;2022-12-18T06:56:21;-1.60;99.90
7167;DHT22;3625;51.762;14.320;2022-12-18T06:58:49;-2.80;99.90
7167;DHT22;3625;51.762;14.320;2022-12-18T07:01:19;-2.70;99.90
7167;DHT22;3625;51.762;14.320;2022-12-18T07:03:51;-2.70;99.90
7167;DHT22;3625;51.762;14.320;2022-12-18T07:06:23;-2.70;99.90
7167;DHT22;3625;51.762;14.320;2022-12-18T07:08:53;-2.80;99.90
7167;DHT22;3625;51.762;14.320;2022-12-18T07:11:22;-2.90;99.90
7167;DHT22;3625;51.762;14.320;2022-12-18T07:13:52;-2.80;99.90
7167;DHT22;3625;51.762;14.320;2022-12-18T07:16:22;-2.80;99.90
7167;DHT22;3625;51.762;14.320;2022-12-18T07:18:52;-2.80;99.90
7167;DHT22;3625;51.762;14.320;2022-12-18T07:23:50;-2.70;99.90
7167;DHT22;3625;51.762;14.320;2022-12-18T07:26:20;-2.70;99.90
7167;DHT22;3625;51.762;14.320;2022-12-18T07:31:26;-2.60;99.90
7167;DHT22;3625;51.762;14.320;2022-12-18T07:33:55;-2.50;99.90
7167;DHT22;3625;51.762;14.320;2022-12-18T07:36:23;-2.50;99.90
7167;DHT22;3625;51.762;14.320;2022-12-18T07:38:52;-2.60;99.90
7167;DHT22;3625;51.762;14.320;2022-12-18T07:41:20;-2.60;99.90
7167;DHT22;3625;51.762;14.320;2022-12-18T07:46:18;-2.60;99.90
7167;DHT22;3625;51.762;14.320;2022-12-18T07:48:48;-2.20;99.90
7167;DHT22;3625;51.762;14.320;2022-12-18T07:51:18;-2.60;99.90
7167;DHT22;3625;51.762;14.320;2022-12-18T07:53:46;-2.60;99.90
7167;DHT22;3625;51.762;14.320;2022-12-18T07:56:19;-2.70;99.90
7167;DHT22;3625;51.762;14.320;2022-12-18T07:58:54;-2.60;99.90
7167;DHT22;3625;51.762;14.320;2022-12-18T08:01:22;-1.50;99.90
7167;DHT22;3625;51.762;14.320;2022-12-18T08:03:53;-2.40;99.90
7167;DHT22;3625;51.762;14.320;2022-12-18T08:06:21;-2.40;99.90
7167;DHT22;3625;51.762;14.320;2022-12-18T08:08:51;-2.30;99.90
7167;DHT22;3625;51.762;14.320;2022-12-18T08:11:21;-2.30;99.90
7167;DHT22;3625;51.762;14.320;2022-12-18T08:13:51;0.00;99.90
7167;DHT22;3625;51.762;14.320;2022-12-18T08:16:21;-2.40;99.90
7167;DHT22;3625;51.762;14.320;2022-12-18T08:18:52;-2.50;99.90
7167;DHT22;3625;51.762;14.320;2022-12-18T08:21:23;-2.40;99.90
7167;DHT22;3625;51.762;14.320;2022-12-18T08:23:54;-2.40;99.90
7167;DHT22;3625;51.762;14.320;2022-12-18T08:26:25;-2.40;99.90
7167;DHT22;3625;51.762;14.320;2022-12-18T08:28:57;-2.60;99.90
7167;DHT22;3625;51.762;14.320;2022-12-18T08:31:28;-2.50;99.90
7167;DHT22;3625;51.762;14.320;2022-12-18T08:33:59;-2.40;99.90
7167;DHT22;3625;51.762;14.320;2022-12-18T08:38:56;-2.40;99.90
7167;DHT22;3625;51.762;14.320;2022-12-18T08:41:26;-2.50;99.90
7167;DHT22;3625;51.762;14.320;2022-12-18T08:43:54;-2.40;99.90
7167;DHT22;3625;51.762;14.320;2022-12-18T08:46:41;-2.40;99.90
7167;DHT22;3625;51.762;14.320;2022-12-18T08:49:12;-2.30;99.90
7167;DHT22;3625;51.762;14.320;2022-12-18T08:54:11;-2.60;99.90
7167;DHT22;3625;51.762;14.320;2022-12-18T08:56:40;-2.60;99.90
7167;DHT22;3625;51.762;14.320;2022-12-18T08:59:09;-2.50;99.90
7167;DHT22;3625;51.762;14.320;2022-12-18T09:01:45;-1.00;99.90
7167;DHT22;3625;51.762;14.320;2022-12-18T09:04:17;-2.50;99.90
7167;DHT22;3625;51.762;14.320;2022-12-18T09:09:14;-2.30;99.90
7167;DHT22;3625;51.762;14.320;2022-12-18T09:11:43;1.10;99.90
7167;DHT22;3625;51.762;14.320;2022-12-18T09:14:12;-1.30;99.90
7167;DHT22;3625;51.762;14.320;2022-12-18T09:19:10;-2.00;99.90
7167;DHT22;3625;51.762;14.320;2022-12-18T09:21:40;-1.90;99.90
7167;DHT22;3625;51.762;14.320;2022-12-18T09:24:14;0.30;99.90
7167;DHT22;3625;51.762;14.320;2022-12-18T09:26:44;-1.90;99.90
7167;DHT22;3625;51.762;14.320;2022-12-18T09:29:13;-1.90;99.90
7167;DHT22;3625;51.762;14.320;2022-12-18T09:31:45;-1.90;99.90
7167;DHT22;3625;51.762;14.320;2022-12-18T09:36:43;-2.00;99.90
7167;DHT22;3625;51.762;14.320;2022-12-18T09:39:13;-2.00;99.90
7167;DHT22;3625;51.762;14.320;2022-12-18T09:41:45;-2.20;99.90
7167;DHT22;3625;51.762;14.320;2022-12-18T09:44:23;-2.20;99.90
7167;DHT22;3625;51.762;14.320;2022-12-18T09:47:04;-2.30;99.90
7167;DHT22;3625;51.762;14.320;2022-12-18T09:49:41;-2.30;99.90
7167;DHT22;3625;51.762;14.320;2022-12-18T09:52:21;-2.10;99.90
7167;DHT22;3625;51.762;14.320;2022-12-18T09:54:58;-1.90;99.90
7167;DHT22;3625;51.762;14.320;2022-12-18T09:57:32;-1.90;99.90
7167;DHT22;3625;51.762;14.320;2022-12-18T10:00:17;-2.00;99.90
7167;DHT22;3625;51.762;14.320;2022-12-18T10:02:48;-2.00;99.90
7167;DHT22;3625;51.762;14.320;2022-12-18T10:05:24;-1.90;99.90
7167;DHT22;3625;51.762;14.320;2022-12-18T10:08:07;-2.00;99.90
7167;DHT22;3625;51.762;14.320;2022-12-18T10:10:46;-1.80;99.90
7167;DHT22;3625;51.762;14.320;2022-12-18T10:13:23;-1.80;99.90
7167;DHT22;3625;51.762;14.320;2022-12-18T10:16:07;-1.70;99.90
7167;DHT22;3625;51.762;14.320;2022-12-18T10:21:57;-1.60;99.90
7167;DHT22;3625;51.762;14.320;2022-12-18T10:24:40;-1.70;99.90
7167;DHT22;3625;51.762;14.320;2022-12-18T10:27:15;-1.70;99.90
7167;DHT22;3625;51.762;14.320;2022-12-18T10:29:46;-1.60;99.90
7167;DHT22;3625;51.762;14.320;2022-12-18T10:32:16;-1.50;99.90
7167;DHT22;3625;51.762;14.320;2022-12-18T10:34:47;-1.50;99.90
7167;DHT22;3625;51.762;14.320;2022-12-18T10:37:28;-1.40;99.90
7167;DHT22;3625;51.762;14.320;2022-12-18T10:40:12;-1.40;99.90
7167;DHT22;3625;51.762;14.320;2022-12-18T10:43:03;-1.40;99.90
7167;DHT22;3625;51.762;14.320;2022-12-18T10:45:33;-1.70;99.90
7167;DHT22;3625;51.762;14.320;2022-12-18T10:48:01;-1.80;99.90
7167;DHT22;3625;51.762;14.320;2022-12-18T10:50:34;-1.80;99.90
7167;DHT22;3625;51.762;14.320;2022-12-18T10:53:25;-1.60;99.90
7167;DHT22;3625;51.762;14.320;2022-12-18T10:55:58;-1.60;99.90
7167;DHT22;3625;51.762;14.320;2022-12-18T10:58:29;-1.80;99.90
7167;DHT22;3625;51.762;14.320;2022-12-18T11:01:06;-1.70;99.90
7167;DHT22;3625;51.762;14.320;2022-12-18T11:03:38;-1.50;99.90
7167;DHT22;3625;51.762;14.320;2022-12-18T11:06:11;-1.40;99.90
7167;DHT22;3625;51.762;14.320;2022-12-18T11:08:43;-1.20;99.90
7167;DHT22;3625;51.762;14.320;2022-12-18T11:11:25;-1.20;99.90
7167;DHT22;3625;51.762;14.320;2022-12-18T11:13:59;-1.00;99.90
7167;DHT22;3625;51.762;14.320;2022-12-18T11:16:34;-0.90;99.90
7167;DHT22;3625;51.762;14.320;2022-12-18T11:19:33;-0.80;99.90
7167;DHT22;3625;51.762;14.320;2022-12-18T11:22:19;-0.80;99.90
7167;DHT22;3625;51.762;14.320;2022-12-18T11:24:54;-0.80;99.90
7167;DHT22;3625;51.762;14.320;2022-12-18T11:27:50;-0.20;99.90
7167;DHT22;3625;51.762;14.320;2022-12-18T11:30:24;-0.60;99.90
7167;DHT22;3625;51.762;14.320;2022-12-18T11:32:56;-1.30;99.90
7167;DHT22;3625;51.762;14.320;2022-12-18T11:35:42;-1.40;99.90
7167;DHT22;3625;51.762;14.320;2022-12-18T11:38:21;-1.50;99.90
7167;DHT22;3625;51.762;14.320;2022-12-18T11:40:56;-1.10;99.90
7167;DHT22;3625;51.762;14.320;2022-12-18T11:43:33;-1.60;99.90
7167;DHT22;3625;51.762;14.320;2022-12-18T11:46:14;-1.70;99.90
7167;DHT22;3625;51.762;14.320;2022-12-18T11:48:52;-1.80;99.90
7167;DHT22;3625;51.762;14.320;2022-12-18T11:51:30;0.50;99.90
7167;DHT22;3625;51.762;14.320;2022-12-18T11:54:10;-1.80;99.90
7167;DHT22;3625;51.762;14.320;2022-12-18T11:56:45;-1.80;99.90
7167;DHT22;3625;51.762;14.320;2022-12-18T11:59:29;-1.80;99.90
7167;DHT22;3625;51.762;14.320;2022-12-18T12:02:20;-1.10;99.90
7167;DHT22;3625;51.762;14.320;2022-12-18T12:05:28;-2.70;99.90
7167;DHT22;3625;51.762;14.320;2022-12-18T12:08:13;-1.60;99.90
7167;DHT22;3625;51.762;14.320;2022-12-18T12:10:55;-0.90;99.90
7167;DHT22;3625;51.762;14.320;2022-12-18T12:13:42;-0.20;99.90
7167;DHT22;3625;51.762;14.320;2022-12-18T12:16:24;-1.70;99.90
7167;DHT22;3625;51.762;14.320;2022-12-18T12:19:15;-1.60;99.90
7167;DHT22;3625;51.762;14.320;2022-12-18T12:22:00;-1.10;99.90
7167;DHT22;3625;51.762;14.320;2022-12-18T12:24:46;-1.50;99.90
7167;DHT22;3625;51.762;14.320;2022-12-18T12:27:28;-1.40;99.90
7167;DHT22;3625;51.762;14.320;2022-12-18T12:30:09;-0.40;99.90
7167;DHT22;3625;51.762;14.320;2022-12-18T12:33:02;-1.40;99.90
7167;DHT22;3625;51.762;14.320;2022-12-18T12:35:47;-0.80;99.90
7167;DHT22;3625;51.762;14.320;2022-12-18T12:38:27;-1.30;99.90
7167;DHT22;3625;51.762;14.320;2022-12-18T12:41:02;-1.10;99.90
7167;DHT22;3625;51.762;14.320;2022-12-18T12:43:56;-1.20;99.90
7167;DHT22;3625;51.762;14.320;2022-12-18T12:46:27;-1.10;99.90
7167;DHT22;3625;51.762;14.320;2022-12-18T12:49:02;-1.10;99.90
7167;DHT22;3625;51.762;14.320;2022-12-18T12:51:38;-0.80;99.90
7167;DHT22;3625;51.762;14.320;2022-12-18T12:54:15;-1.50;99.90
7167;DHT22;3625;51.762;14.320;2022-12-18T12:56:52;-1.50;99.90
7167;DHT22;3625;51.762;14.320;2022-12-18T12:59:34;-1.60;99.90
7167;DHT22;3625;51.762;14.320;2022-12-18T13:02:16;-1.90;99.90
7167;DHT22;3625;51.762;14.320;2022-12-18T13:04:58;-2.40;99.90
7167;DHT22;3625;51.762;14.320;2022-12-18T13:07:37;-2.30;99.90
7167;DHT22;3625;51.762;14.320;2022-12-18T13:10:25;-2.00;99.90
7167;DHT22;3625;51.762;14.320;2022-12-18T13:13:01;-2.60;99.90
7167;DHT22;3625;51.762;14.320;2022-12-18T13:15:40;-2.70;99.90
7167;DHT22;3625;51.762;14.320;2022-12-18T13:18:18;-2.80;99.90
7167;DHT22;3625;51.762;14.320;2022-12-18T13:20:50;-2.80;99.90
7167;DHT22;3625;51.762;14.320;2022-12-18T13:23:32;-3.00;99.90
7167;DHT22;3625;51.762;14.320;2022-12-18T13:26:31;-1.60;99.90
7167;DHT22;3625;51.762;14.320;2022-12-18T13:29:01;-3.00;99.90
7167;DHT22;3625;51.762;14.320;2022-12-18T13:34:48;-3.10;99.90
7167;DHT22;3625;51.762;14.320;2022-12-18T13:37:51;-1.90;99.90
7167;DHT22;3625;51.762;14.320;2022-12-18T13:43:31;-3.30;99.90
7167;DHT22;3625;51.762;14.320;2022-12-18T13:46:21;-3.30;99.90
7167;DHT22;3625;51.762;14.320;2022-12-18T13:48:56;-3.30;99.90
7167;DHT22;3625;51.762;14.320;2022-12-18T13:51:29;-3.30;99.90
7167;DHT22;3625;51.762;14.320;2022-12-18T13:54:06;-3.40;99.90
7167;DHT22;3625;51.762;14.320;2022-12-18T13:56:47;-3.30;99.90
7167;DHT22;3625;51.762;14.320;2022-12-18T13:59:19;-3.30;99.90
7167;DHT22;3625;51.762;14.320;2022-12-18T14:01:54;-3.20;99.90
7167;DHT22;3625;51.762;14.320;2022-12-18T14:04:26;-3.20;99.90
7167;DHT22;3625;51.762;14.320;2022-12-18T14:07:00;-3.20;99.90
7167;DHT22;3625;51.762;14.320;2022-12-18T14:09:35;-3.30;99.90
7167;DHT22;3625;51.762;14.320;2022-12-18T14:12:06;-3.30;99.90
7167;DHT22;3625;51.762;14.320;2022-12-18T14:15:21;-2.90;99.90
7167;DHT22;3625;51.762;14.320;2022-12-18T14:17:58;-3.40;99.90
7167;DHT22;3625;51.762;14.320;2022-12-18T14:20:31;-3.50;99.90
7167;DHT22;3625;51.762;14.320;2022-12-18T14:23:02;-3.60;99.90
7167;DHT22;3625;51.762;14.320;2022-12-18T14:25:31;-3.60;99.90
7167;DHT22;3625;51.762;14.320;2022-12-18T14:28:07;-3.40;99.90
7167;DHT22;3625;51.762;14.320;2022-12-18T14:30:43;-2.10;99.90
7167;DHT22;3625;51.762;14.320;2022-12-18T14:33:15;-3.80;99.90
7167;DHT22;3625;51.762;14.320;2022-12-18T14:35:54;-3.80;99.90
7167;DHT22;3625;51.762;14.320;2022-12-18T14:38:27;-3.80;99.90
7167;DHT22;3625;51.762;14.320;2022-12-18T14:41:03;-3.80;99.90
7167;DHT22;3625;51.762;14.320;2022-12-18T14:43:34;-3.50;99.90
7167;DHT22;3625;51.762;14.320;2022-12-18T14:46:05;-4.00;99.90
7167;DHT22;3625;51.762;14.320;2022-12-18T14:48:54;-1.80;99.90
7167;DHT22;3625;51.762;14.320;2022-12-18T14:51:24;-4.10;99.90
7167;DHT22;3625;51.762;14.320;2022-12-18T14:53:55;-2.40;99.90
7167;DHT22;3625;51.762;14.320;2022-12-18T14:56:29;-4.10;99.90
7167;DHT22;3625;51.762;14.320;2022-12-18T14:59:00;-4.10;99.90
7167;DHT22;3625;51.762;14.320;2022-12-18T15:01:34;-2.70;99.90
7167;DHT22;3625;51.762;14.320;2022-12-18T15:04:24;-4.10;99.90
7167;DHT22;3625;51.762;14.320;2022-12-18T15:07:08;-4.00;99.90
7167;DHT22;3625;51.762;14.320;2022-12-18T15:09:42;-4.00;99.90
7167;DHT22;3625;51.762;14.320;2022-12-18T15:12:26;-4.10;99.90
7167;DHT22;3625;51.762;14.320;2022-12-18T15:15:04;-4.10;99.90
7167;DHT22;3625;51.762;14.320;2022-12-18T15:17:33;-4.10;99.90
7167;DHT22;3625;51.762;14.320;2022-12-18T15:20:08;-4.10;99.90
7167;DHT22;3625;51.762;14.320;2022-12-18T15:22:38;-4.10;99.90
7167;DHT22;3625;51.762;14.320;2022-12-18T15:25:25;-2.80;99.90
7167;DHT22;3625;51.762;14.320;2022-12-18T15:28:01;-2.80;99.90
7167;DHT22;3625;51.762;14.320;2022-12-18T15:33:18;-4.40;99.90
7167;DHT22;3625;51.762;14.320;2022-12-18T15:35:56;-4.40;99.90
7167;DHT22;3625;51.762;14.320;2022-12-18T15:38:25;-4.50;99.90
7167;DHT22;3625;51.762;14.320;2022-12-18T15:40:54;-4.70;99.90
7167;DHT22;3625;51.762;14.320;2022-12-18T15:43:25;-1.60;99.90
7167;DHT22;3625;51.762;14.320;2022-12-18T15:46:03;-4.70;99.90
7167;DHT22;3625;51.762;14.320;2022-12-18T15:48:34;-4.80;99.90
7167;DHT22;3625;51.762;14.320;2022-12-18T15:51:13;-4.80;99.90
7167;DHT22;3625;51.762;14.320;2022-12-18T15:53:45;-4.80;99.90
7167;DHT22;3625;51.762;14.320;2022-12-18T15:56:16;-4.80;99.90
7167;DHT22;3625;51.762;14.320;2022-12-18T15:59:09;-4.90;99.90
7167;DHT22;3625;51.762;14.320;2022-12-18T16:01:39;-4.90;99.90
7167;DHT22;3625;51.762;14.320;2022-12-18T16:04:11;-5.00;99.90
7167;DHT22;3625;51.762;14.320;2022-12-18T16:06:41;-5.10;99.90
7167;DHT22;3625;51.762;14.320;2022-12-18T16:09:30;-5.10;99.90
7167;DHT22;3625;51.762;14.320;2022-12-18T16:12:01;-5.10;99.90
7167;DHT22;3625;51.762;14.320;2022-12-18T16:14:32;-5.10;99.90
7167;DHT22;3625;51.762;14.320;2022-12-18T16:17:05;-5.10;99.90
7167;DHT22;3625;51.762;14.320;2022-12-18T16:24:43;-5.20;99.90
7167;DHT22;3625;51.762;14.320;2022-12-18T16:27:11;-4.00;99.90
7167;DHT22;3625;51.762;14.320;2022-12-18T16:29:41;-5.40;99.90
7167;DHT22;3625;51.762;14.320;2022-12-18T16:32:13;-5.40;99.90
7167;DHT22;3625;51.762;14.320;2022-12-18T16:37:14;-5.50;99.90
7167;DHT22;3625;51.762;14.320;2022-12-18T16:42:16;-5.40;99.90
7167;DHT22;3625;51.762;14.320;2022-12-18T16:44:50;-5.40;99.90
7167;DHT22;3625;51.762;14.320;2022-12-18T16:47:19;-5.40;99.90
7167;DHT22;3625;51.762;14.320;2022-12-18T17:02:27;-5.10;99.90
7167;DHT22;3625;51.762;14.320;2022-12-18T17:07:28;-5.10;99.90
7167;DHT22;3625;51.762;14.320;2022-12-18T17:19:55;-5.30;99.90
7167;DHT22;3625;51.762;14.320;2022-12-18T17:24:54;-5.40;99.90
7167;DHT22;3625;51.762;14.320;2022-12-18T17:32:23;-5.60;99.90
7167;DHT22;3625;51.762;14.320;2022-12-18T17:34:53;-5.60;99.90
7167;DHT22;3625;51.762;14.320;2022-12-18T17:39:52;-5.60;99.90
7167;DHT22;3625;51.762;14.320;2022-12-18T17:42:21;-5.80;99.90
7167;DHT22;3625;51.762;14.320;2022-12-18T17:44:52;-5.70;99.90
7167;DHT22;3625;51.762;14.320;2022-12-18T18:07:19;-5.30;99.90
7167;DHT22;3625;51.762;14.320;2022-12-18T18:15:07;-5.20;99.90
7167;DHT22;3625;51.762;14.320;2022-12-18T18:22:38;-5.20;99.90
7167;DHT22;3625;51.762;14.320;2022-12-18T18:38:00;-5.20;99.90
7167;DHT22;3625;51.762;14.320;2022-12-18T18:45:35;-5.20;99.90
7167;DHT22;3625;51.762;14.320;2022-12-18T18:53:07;-5.20;99.90
7167;DHT22;3625;51.762;14.320;2022-12-18T19:00:38;-5.20;99.90
7167;DHT22;3625;51.762;14.320;2022-12-18T19:08:17;-5.20;99.90
7167;DHT22;3625;51.762;14.320;2022-12-18T19:10:50;-5.20;99.90
7167;DHT22;3625;51.762;14.320;2022-12-18T19:16:01;-5.30;99.90
7167;DHT22;3625;51.762;14.320;2022-12-18T19:18:32;-5.30;99.90
7167;DHT22;3625;51.762;14.320;2022-12-18T19:21:05;-5.40;99.90
7167;DHT22;3625;51.762;14.320;2022-12-18T19:23:36;-5.40;99.90
7167;DHT22;3625;51.762;14.320;2022-12-18T19:26:06;-5.40;99.90
7167;DHT22;3625;51.762;14.320;2022-12-18T19:31:27;-5.40;99.90
7167;DHT22;3625;51.762;14.320;2022-12-18T19:34:03;-5.40;99.90
7167;DHT22;3625;51.762;14.320;2022-12-18T19:36:36;-5.40;99.90